Time;durP1;ratioP1;P1;durP2;ratioP2;P2;SDS_P1;SDS_P2;PMS_P1;PMS_P2;Temp;Humidity;BMP_temperature;BMP_pressure;BME280_temperature;BME280_humidity;BME280_pressure;Samples;Min_cycle;Max_cycle;Signal;HPM_P1;HPM_P2
2022/01/15 00:01:31;;;;;;;;;;;;;;;1.55;72.67;101036.03;4987826;28;20357;-85
2022/01/15 00:03:59;;;;;;;;;;;;;;;1.45;72.26;101035.03;4985692;28;19949;-90
2022/01/15 00:06:24;;;;;;;;;;;;;;;1.50;72.20;101026.34;4987476;28;19921;-93
2022/01/15 00:08:50;;;;;;;;;;;;;;;1.58;72.30;101033.47;4987559;28;19972;-87
2022/01/15 00:11:15;;;;;;;;;;;;;;;1.58;72.06;101025.63;4985652;28;20321;-91
2022/01/15 00:13:43;;;;;;;;;;;;;;;1.57;72.12;101023.84;4991444;28;19918;-88
2022/01/15 00:16:25;;;;;;;;;;;;;;;1.58;72.11;101030.84;4983839;28;19957;-89
2022/01/15 00:19:08;;;;;;;;;;;;;;;1.55;72.11;101027.31;4985079;28;19961;-91
2022/01/15 00:21:34;;;;;;;;;;;;;;;1.56;72.00;101032.53;4982098;28;19926;-86
2022/01/15 00:23:59;;;;;;;;;;;;;;;1.59;71.91;101024.75;4980440;28;19928;-85
2022/01/15 00:26:25;;;;;;;;;;;;;;;1.60;71.82;101029.13;4981910;28;19933;-85
2022/01/15 00:28:50;;;;;;;;;;;;;;;1.65;71.95;101023.09;4980744;28;19922;-89
2022/01/15 00:31:15;;;;;;;;;;;;;;;1.64;71.97;101019.59;4982497;28;20320;-87
2022/01/15 00:33:40;;;;;;;;;;;;;;;1.63;71.96;101018.72;4982425;28;19918;-86
2022/01/15 00:36:06;;;;;;;;;;;;;;;1.68;72.32;101023.16;4982827;28;19917;-87
2022/01/15 00:38:31;;;;;;;;;;;;;;;1.75;71.90;101017.13;4983232;28;19926;-87
2022/01/15 00:40:56;;;;;;;;;;;;;;;1.74;72.09;101007.50;4982761;28;19926;-88
2022/01/15 00:43:21;;;;;;;;;;;;;;;1.63;71.77;101003.03;4982106;28;19921;-87
2022/01/15 00:45:47;;;;;;;;;;;;;;;1.74;72.12;101003.19;4981386;28;20118;-88
2022/01/15 00:48:12;;;;;;;;;;;;;;;1.73;71.96;101004.03;4981557;28;19945;-87
2022/01/15 04:19:43;;;;;;;;;;;;;;;2.19;96.21;100886.03;4931478;28;19933;-88
2022/01/15 04:22:09;;;;;;;;;;;;;;;2.14;95.86;100885.97;4955928;28;19926;-86
2022/01/15 04:24:34;;;;;;;;;;;;;;;2.11;95.36;100885.94;4955782;28;19923;-93
2022/01/15 04:26:59;;;;;;;;;;;;;;;2.04;94.80;100884.13;4955497;28;20017;-86
2022/01/15 04:29:24;;;;;;;;;;;;;;;1.98;94.55;100879.72;4954162;29;19926;-86
2022/01/15 04:31:51;;;;;;;;;;;;;;;1.90;94.00;100881.41;4954261;28;20428;-86
2022/01/15 04:34:25;;;;;;;;;;;;;;;1.85;93.67;100877.88;4955255;29;19926;-88
2022/01/15 04:36:51;;;;;;;;;;;;;;;1.80;93.15;100882.16;4970100;28;20437;-89
2022/01/15 04:39:17;;;;;;;;;;;;;;;1.78;92.88;100883.88;4955235;29;19956;-89
2022/01/15 04:41:42;;;;;;;;;;;;;;;1.74;92.59;100885.59;4955102;28;20399;-87
2022/01/15 04:44:07;;;;;;;;;;;;;;;1.69;92.32;100879.44;4955577;28;19925;-87
2022/01/15 04:46:33;;;;;;;;;;;;;;;1.67;91.84;100870.69;4955139;28;20380;-88
2022/01/15 04:48:58;;;;;;;;;;;;;;;1.67;91.33;100873.31;4952896;29;19919;-89
2022/01/15 04:51:24;;;;;;;;;;;;;;;1.60;90.83;100881.94;4953870;28;20102;-90
2022/01/15 04:53:49;;;;;;;;;;;;;;;1.50;90.28;100875.75;4953693;28;19962;-90
2022/01/15 04:56:14;;;;;;;;;;;;;;;1.42;89.77;100877.38;4954984;28;19965;-89
2022/01/15 04:58:39;;;;;;;;;;;;;;;1.41;89.40;100875.63;4969854;28;19919;-90
2022/01/15 05:01:05;;;;;;;;;;;;;;;1.36;88.81;100877.31;4969564;28;20288;-89
2022/01/15 05:03:32;;;;;;;;;;;;;;;1.33;88.30;100866.84;4953405;28;19989;-87
2022/01/15 05:05:57;;;;;;;;;;;;;;;1.29;87.78;100870.25;4969299;28;19918;-90
2022/01/15 05:08:22;;;;;;;;;;;;;;;1.24;87.54;100865.84;4954597;28;20358;-86
2022/01/15 05:10:48;;;;;;;;;;;;;;;1.43;89.65;100868.69;4954629;28;20293;-87
2022/01/15 05:13:14;;;;;;;;;;;;;;;1.62;92.23;100865.41;4954511;28;20293;-86
2022/01/15 05:15:43;;;;;;;;;;;;;;;1.63;93.68;100858.47;4952322;29;19930;-86
2022/01/15 05:18:08;;;;;;;;;;;;;;;1.60;94.45;100856.69;4967886;28;19974;-87
2022/01/15 05:20:34;;;;;;;;;;;;;;;1.55;94.79;100863.59;4953927;28;20029;-87
2022/01/15 05:23:00;;;;;;;;;;;;;;;1.48;94.92;100855.69;4954416;28;19924;-87
2022/01/15 05:25:25;;;;;;;;;;;;;;;1.45;94.78;100866.94;4954183;28;19925;-86
2022/01/15 05:27:51;;;;;;;;;;;;;;;1.41;94.82;100863.44;4954263;29;19919;-87
2022/01/15 05:30:16;;;;;;;;;;;;;;;1.36;94.68;100866.88;4954220;28;20378;-88
2022/01/15 05:32:42;;;;;;;;;;;;;;;1.32;94.41;100865.06;4951942;29;19923;-86
2022/01/15 05:35:07;;;;;;;;;;;;;;;1.24;94.18;100865.84;4954012;28;20289;-87
2022/01/15 05:37:33;;;;;;;;;;;;;;;1.23;93.90;100858.88;4954101;28;19918;-86
2022/01/15 05:39:58;;;;;;;;;;;;;;;1.21;93.61;100858.00;4953454;28;19922;-86
2022/01/15 05:42:24;;;;;;;;;;;;;;;1.13;93.34;100857.00;4968953;28;19953;-88
2022/01/15 05:44:49;;;;;;;;;;;;;;;1.11;93.09;100858.72;4953906;28;19922;-86
2022/01/15 05:47:14;;;;;;;;;;;;;;;1.09;92.76;100857.84;4952856;28;19923;-90
2022/01/15 08:54:02;;;;;;;;;;;;;;;0.39;81.65;100811.63;5403823;23;20372;-86
2022/01/15 08:56:28;;;;;;;;;;;;;;;0.42;81.57;100811.69;4992955;28;19926;-87
2022/01/15 08:58:53;;;;;;;;;;;;;;;0.44;81.44;100817.78;4993349;28;19918;-86
2022/01/15 09:01:18;;;;;;;;;;;;;;;0.50;81.64;100803.97;4993539;28;20332;-88
2022/01/15 09:03:44;;;;;;;;;;;;;;;0.49;81.66;100808.28;4991563;28;19918;-87
2022/01/15 09:06:10;;;;;;;;;;;;;;;0.50;81.47;100810.06;4993548;28;19936;-86
2022/01/15 09:08:35;;;;;;;;;;;;;;;0.51;81.44;100805.69;4992245;28;19918;-89
2022/01/15 09:11:01;;;;;;;;;;;;;;;0.50;81.29;100807.44;4991322;28;19922;-87
2022/01/15 09:13:27;;;;;;;;;;;;;;;0.53;81.11;100817.06;4992042;28;19925;-88
2022/01/15 09:15:52;;;;;;;;;;;;;;;0.49;81.07;100810.03;4992668;28;19922;-88
2022/01/15 09:18:18;;;;;;;;;;;;;;;0.51;80.98;100811.81;4991853;28;19968;-86
2022/01/15 09:20:43;;;;;;;;;;;;;;;0.51;80.92;100817.03;4992941;28;20385;-88
2022/01/15 09:23:09;;;;;;;;;;;;;;;0.59;81.16;100803.22;4988153;28;19971;-88
2022/01/15 09:25:34;;;;;;;;;;;;;;;0.56;80.79;100798.84;4992216;28;19928;-86
2022/01/15 09:30:43;;;;;;;;;;;;;;;0.55;80.54;100797.06;4992650;28;20368;-87
2022/01/15 09:33:09;;;;;;;;;;;;;;;0.59;80.60;100791.06;4991529;28;19925;-88
2022/01/15 09:35:34;;;;;;;;;;;;;;;0.58;80.48;100797.13;4992529;28;19929;-86
2022/01/15 09:38:00;;;;;;;;;;;;;;;0.63;80.75;100791.97;4991916;28;19933;-89
2022/01/15 09:40:26;;;;;;;;;;;;;;;0.62;80.61;100792.81;4992061;28;19917;-87
2022/01/15 09:42:52;;;;;;;;;;;;;;;0.58;80.31;100791.91;4992742;28;19976;-87
2022/01/15 09:45:19;;;;;;;;;;;;;;;0.62;80.37;100787.59;4992435;28;19917;-89
2022/01/15 09:47:45;;;;;;;;;;;;;;;0.59;80.17;100784.94;4992734;28;20468;-85
2022/01/15 09:50:12;;;;;;;;;;;;;;;0.65;80.46;100783.28;4990591;28;20008;-87
2022/01/15 09:52:38;;;;;;;;;;;;;;;0.63;80.21;100789.38;4985522;28;20284;-86
2022/01/15 09:55:05;;;;;;;;;;;;;;;0.62;79.97;100782.38;4991202;28;19922;-88
2022/01/15 09:57:30;;;;;;;;;;;;;;;0.63;80.00;100784.16;4992586;28;20400;-88
2022/01/15 09:59:56;;;;;;;;;;;;;;;0.63;79.72;100781.53;4992457;28;19917;-88
2022/01/15 10:02:21;;;;;;;;;;;;;;;0.66;79.81;100785.06;4992639;28;20024;-85
2022/01/15 10:04:46;;;;;;;;;;;;;;;0.69;79.82;100784.25;4991320;28;19917;-88
2022/01/15 10:07:12;;;;;;;;;;;;;;;0.70;79.75;100783.34;4992290;28;19917;-87
2022/01/15 10:09:37;;;;;;;;;;;;;;;0.76;79.89;100777.34;4991241;28;19929;-88
2022/01/15 10:12:02;;;;;;;;;;;;;;;0.72;79.73;100784.28;4992328;28;19918;-86
2022/01/15 10:14:28;;;;;;;;;;;;;;;0.73;79.71;100778.19;4992640;28;19924;-86
2022/01/15 10:16:55;;;;;;;;;;;;;;;0.72;79.75;100779.94;4992249;28;19914;-85
2022/01/15 10:19:30;;;;;;;;;;;;;;;0.72;79.62;100773.84;4992305;28;19918;-86
2022/01/15 10:22:13;;;;;;;;;;;;;;;0.74;79.57;100776.47;4990512;28;20491;-89
2022/01/15 10:24:41;;;;;;;;;;;;;;;0.73;79.50;100770.34;4991818;28;19964;-88
2022/01/15 10:27:16;;;;;;;;;;;;;;;0.76;79.38;100770.41;4994487;28;19928;-87
2022/01/15 10:29:41;;;;;;;;;;;;;;;0.78;79.32;100767.81;4996091;28;19953;-89
2022/01/15 10:32:12;;;;;;;;;;;;;;;0.79;79.24;100765.22;4996138;28;19964;-88
2022/01/15 10:34:37;;;;;;;;;;;;;;;0.80;79.06;100761.78;4994585;28;20304;-90
2022/01/15 10:37:07;;;;;;;;;;;;;;;0.82;78.94;100761.78;4996248;28;20005;-86
2022/01/15 10:39:32;;;;;;;;;;;;;;;0.85;79.07;100759.22;4995068;28;20352;-90
2022/01/15 10:41:57;;;;;;;;;;;;;;;0.87;78.99;100763.59;4995955;28;19957;-88
2022/01/15 10:44:36;;;;;;;;;;;;;;;0.89;78.72;100761.88;4995805;28;19925;-88
2022/01/15 10:47:03;;;;;;;;;;;;;;;0.81;78.32;100757.41;4994690;28;20373;-88
2022/01/15 10:49:29;;;;;;;;;;;;;;;0.81;78.15;100758.28;4996488;28;19995;-89
2022/01/15 10:52:07;;;;;;;;;;;;;;;0.85;78.16;100754.88;4995876;28;19953;-88
2022/01/15 10:54:34;;;;;;;;;;;;;;;0.84;77.77;100747.88;4994408;28;19930;-88
2022/01/15 10:57:10;;;;;;;;;;;;;;;0.81;77.97;100741.75;4995702;28;20409;-89
2022/01/15 10:59:35;;;;;;;;;;;;;;;0.86;78.04;100740.97;4995809;28;19924;-89
2022/01/15 11:02:17;;;;;;;;;;;;;;;0.84;77.85;100734.84;4995521;28;19922;-89
2022/01/15 11:04:42;;;;;;;;;;;;;;;0.88;77.82;100730.56;4994336;28;19929;-88
2022/01/15 11:07:14;;;;;;;;;;;;;;;0.88;77.91;100723.59;4994318;28;20076;-88
2022/01/15 11:09:44;;;;;;;;;;;;;;;0.92;77.87;100728.84;4993777;28;19929;-89
2022/01/15 11:12:09;;;;;;;;;;;;;;;0.97;77.82;100724.53;4995188;28;20013;-90
2022/01/15 11:14:35;;;;;;;;;;;;;;;0.95;77.55;100721.91;4994013;28;20080;-87
2022/01/15 11:17:01;;;;;;;;;;;;;;;0.93;77.41;100725.38;4995379;28;19984;-88
2022/01/15 11:19:28;;;;;;;;;;;;;;;0.94;77.51;100722.75;4994113;28;19918;-89
2022/01/15 11:21:54;;;;;;;;;;;;;;;0.94;77.46;100721.91;4994088;28;19922;-89
2022/01/15 11:24:19;;;;;;;;;;;;;;;0.99;77.43;100715.00;4992744;28;19968;-88
2022/01/15 11:26:45;;;;;;;;;;;;;;;0.99;77.18;100715.00;4994017;28;20389;-90
2022/01/15 11:29:10;;;;;;;;;;;;;;;0.97;77.42;100714.97;4995373;28;19926;-88
2022/01/15 11:31:37;;;;;;;;;;;;;;;1.01;77.33;100715.91;4993756;28;19925;-92
2022/01/15 11:34:04;;;;;;;;;;;;;;;0.99;77.27;100712.38;4995133;28;20366;-89
2022/01/15 11:36:30;;;;;;;;;;;;;;;1.00;77.16;100714.16;4993552;28;19925;-89
2022/01/15 11:38:57;;;;;;;;;;;;;;;1.06;77.27;100704.63;4993790;28;19922;-90
2022/01/15 11:41:22;;;;;;;;;;;;;;;1.14;77.43;100704.72;4994872;28;19976;-91
2022/01/15 11:43:47;;;;;;;;;;;;;;;1.09;77.01;100701.19;4994940;28;19918;-90
2022/01/15 11:46:23;;;;;;;;;;;;;;;1.12;77.48;100696.00;4993679;28;20204;-90
2022/01/15 11:48:49;;;;;;;;;;;;;;;1.05;77.28;100691.56;4993836;28;19964;-89
2022/01/15 11:51:14;;;;;;;;;;;;;;;1.10;77.37;100689.88;4994705;28;19965;-89
2022/01/15 11:53:54;;;;;;;;;;;;;;;1.08;77.28;100691.59;4992438;28;19950;-88
2022/01/15 11:56:20;;;;;;;;;;;;;;;1.10;77.52;100692.50;4994766;28;19922;-87
2022/01/15 11:58:45;;;;;;;;;;;;;;;1.12;77.41;100687.28;4995023;28;20400;-89
2022/01/15 12:01:30;;;;;;;;;;;;;;;1.13;77.23;100686.44;4994733;28;20361;-88
2022/01/15 12:04:15;;;;;;;;;;;;;;;1.14;76.93;100675.16;4986530;28;19970;-88
2022/01/15 12:06:59;;;;;;;;;;;;;;;1.14;76.96;100672.53;4993289;28;19921;-90
2022/01/15 12:09:34;;;;;;;;;;;;;;;1.16;77.03;100668.19;4993107;28;19922;-91
2022/01/15 12:12:00;;;;;;;;;;;;;;;1.18;76.92;100667.34;4994389;28;20260;-87
2022/01/15 12:14:44;;;;;;;;;;;;;;;1.16;76.75;100661.22;4993143;28;19922;-87
2022/01/15 12:17:31;;;;;;;;;;;;;;;1.23;76.86;100662.19;4994304;28;19965;-88
2022/01/15 12:19:58;;;;;;;;;;;;;;;1.21;76.86;100664.78;4994012;28;20000;-89
2022/01/15 12:22:37;;;;;;;;;;;;;;;1.29;77.04;100646.53;4994170;28;19926;-87
2022/01/15 12:25:08;;;;;;;;;;;;;;;1.32;76.83;100650.94;4993109;28;20033;-90
2022/01/15 12:27:34;;;;;;;;;;;;;;;1.27;76.83;100656.97;4993719;28;20357;-87
2022/01/15 12:30:02;;;;;;;;;;;;;;;1.33;77.04;100647.47;4993980;28;19924;-89
2022/01/15 12:32:32;;;;;;;;;;;;;;;1.32;77.06;100648.31;4992913;28;20285;-90
2022/01/15 12:34:58;;;;;;;;;;;;;;;1.34;77.22;100638.75;4992632;28;19975;-89
2022/01/15 12:37:24;;;;;;;;;;;;;;;1.36;76.81;100643.13;4993136;28;19973;-89
2022/01/15 12:39:50;;;;;;;;;;;;;;;1.38;76.83;100638.78;4992806;28;19918;-87
2022/01/15 12:42:17;;;;;;;;;;;;;;;1.39;77.03;100629.25;4992507;28;19929;-88
2022/01/15 12:44:51;;;;;;;;;;;;;;;1.40;76.76;100624.00;4993781;28;20380;-90
2022/01/15 12:47:17;;;;;;;;;;;;;;;1.47;76.80;100627.56;4993131;28;19922;-90
2022/01/15 12:49:47;;;;;;;;;;;;;;;1.49;76.91;100609.28;4992444;28;20265;-88
2022/01/15 12:52:19;;;;;;;;;;;;;;;1.84;78.69;100606.91;4992245;28;19918;-89
2022/01/15 12:54:46;;;;;;;;;;;;;;;2.06;81.05;100602.66;4991451;28;20053;-87
2022/01/15 12:57:11;;;;;;;;;;;;;;;2.24;83.30;100593.16;4991942;28;20432;-90
2022/01/15 12:59:38;;;;;;;;;;;;;;;2.30;85.27;100583.59;4992139;28;20124;-88
2022/01/15 13:02:04;;;;;;;;;;;;;;;2.36;87.07;100588.84;4993169;28;20004;-88
2022/01/15 13:04:29;;;;;;;;;;;;;;;2.38;88.36;100582.72;4993400;28;20012;-88
2022/01/15 13:06:59;;;;;;;;;;;;;;;2.41;89.85;100580.13;4992187;28;20386;-88
2022/01/15 13:09:37;;;;;;;;;;;;;;;2.39;90.74;100577.50;4991863;28;19918;-87
2022/01/15 13:12:03;;;;;;;;;;;;;;;2.36;91.87;100574.88;4993108;28;19925;-88
2022/01/15 13:14:35;;;;;;;;;;;;;;;2.31;92.81;100574.00;4991865;28;20281;-91
2022/01/15 13:17:01;;;;;;;;;;;;;;;2.28;93.81;100580.09;4992929;28;19924;-88
2022/01/15 13:19:35;;;;;;;;;;;;;;;2.27;94.65;100573.13;4992978;28;19926;-87
2022/01/15 13:22:01;;;;;;;;;;;;;;;2.30;95.41;100572.28;4992803;28;19924;-88
2022/01/15 13:24:26;;;;;;;;;;;;;;;2.34;96.17;100574.88;4990787;28;19921;-87
2022/01/15 13:26:52;;;;;;;;;;;;;;;2.35;96.79;100573.16;4992965;28;19926;-89
2022/01/15 13:29:19;;;;;;;;;;;;;;;2.35;97.69;100571.41;4993080;28;19925;-88
2022/01/15 13:31:46;;;;;;;;;;;;;;;2.34;98.58;100559.19;4992966;28;19941;-89
2022/01/15 13:34:25;;;;;;;;;;;;;;;2.35;99.67;100553.09;4992849;28;19945;-88
2022/01/15 13:36:51;;;;;;;;;;;;;;;2.42;100.00;100555.72;4993006;28;19921;-88
2022/01/15 13:39:17;;;;;;;;;;;;;;;2.59;100.00;100553.16;4991325;28;19924;-88
2022/01/15 13:41:43;;;;;;;;;;;;;;;2.77;100.00;100549.69;4992748;28;20387;-88
2022/01/15 13:44:10;;;;;;;;;;;;;;;2.89;100.00;100554.94;4991498;28;19918;-87
2022/01/15 13:46:39;;;;;;;;;;;;;;;2.98;100.00;100551.44;4992611;28;20357;-88
2022/01/15 13:49:10;;;;;;;;;;;;;;;3.05;100.00;100542.75;4992585;28;19918;-89
2022/01/15 13:54:32;;;;;;;;;;;;;;;3.18;100.00;100534.00;4990291;28;19941;-88
2022/01/15 13:57:03;;;;;;;;;;;;;;;3.24;100.00;100538.38;4991921;28;19961;-89
2022/01/15 13:59:28;;;;;;;;;;;;;;;3.31;100.00;100539.22;4991170;28;19968;-89
2022/01/15 14:01:56;;;;;;;;;;;;;;;3.35;100.00;100533.97;4991770;28;19957;-89
2022/01/15 14:04:33;;;;;;;;;;;;;;;3.39;100.00;100529.59;4989881;28;19964;-90
2022/01/15 14:06:58;;;;;;;;;;;;;;;3.44;100.00;100520.84;4991762;28;20285;-88
2022/01/15 14:09:24;;;;;;;;;;;;;;;3.50;100.00;100524.34;4990229;28;20020;-87
2022/01/15 14:11:55;;;;;;;;;;;;;;;3.52;100.00;100522.59;4991711;28;20385;-88
2022/01/15 14:14:20;;;;;;;;;;;;;;;3.57;100.00;100520.81;4989511;28;19953;-88
2022/01/15 14:16:50;;;;;;;;;;;;;;;3.59;100.00;100519.97;4991593;28;20053;-89
2022/01/15 14:19:38;;;;;;;;;;;;;;;3.62;100.00;100508.56;4991760;28;20380;-89
2022/01/15 14:22:17;;;;;;;;;;;;;;;3.69;100.00;100510.31;4991576;28;19929;-90
2022/01/15 14:24:43;;;;;;;;;;;;;;;3.70;100.00;100512.06;4989019;28;20258;-91
2022/01/15 14:27:15;;;;;;;;;;;;;;;3.69;100.00;100509.44;4990250;28;20008;-89
2022/01/15 14:29:40;;;;;;;;;;;;;;;2.85;100.00;100512.16;4990365;28;19944;-90
2022/01/15 14:32:05;;;;;;;;;;;;;;;2.45;100.00;100516.50;4991578;28;19951;-88
2022/01/15 14:34:31;;;;;;;;;;;;;;;2.23;100.00;100513.81;4991373;28;19944;-88
2022/01/15 14:36:56;;;;;;;;;;;;;;;2.12;100.00;100515.53;4991506;28;19921;-88
2022/01/15 14:39:21;;;;;;;;;;;;;;;2.00;100.00;100514.63;4990053;28;19961;-92
2022/01/15 14:41:46;;;;;;;;;;;;;;;1.92;100.00;100513.72;4989883;28;19929;-88
2022/01/15 14:44:12;;;;;;;;;;;;;;;1.89;100.00;100511.09;4991202;28;19921;-88
2022/01/15 14:46:38;;;;;;;;;;;;;;;1.81;100.00;100511.06;4991120;28;19929;-92
2022/01/15 14:49:03;;;;;;;;;;;;;;;1.77;100.00;100504.09;4990026;28;19933;-88
2022/01/15 14:51:29;;;;;;;;;;;;;;;1.71;99.79;100500.53;4990003;28;19918;-88
2022/01/15 14:53:54;;;;;;;;;;;;;;;1.61;98.75;100503.13;4926266;28;1830604;-91
2022/01/15 14:56:19;;;;;;;;;;;;;;;1.61;97.68;100502.25;4990611;28;19922;-89
2022/01/15 14:58:45;;;;;;;;;;;;;;;1.55;96.69;100502.25;4992219;28;20009;-88
2022/01/15 15:01:11;;;;;;;;;;;;;;;1.48;95.72;100501.31;4990869;28;19925;-90
2022/01/15 15:03:36;;;;;;;;;;;;;;;1.42;94.76;100501.25;4992011;28;20028;-89
2022/01/15 15:06:03;;;;;;;;;;;;;;;1.40;93.87;100511.69;4991929;28;20012;-88
2022/01/15 15:08:29;;;;;;;;;;;;;;;1.37;93.14;100506.50;4989221;28;19924;-88
2022/01/15 15:10:54;;;;;;;;;;;;;;;1.34;92.04;100503.84;4991136;28;19918;-88
2022/01/15 15:13:22;;;;;;;;;;;;;;;1.24;91.48;100515.09;4995014;28;20274;-88
2022/01/15 15:15:47;;;;;;;;;;;;;;;1.23;91.19;100510.75;4994122;28;19922;-88
2022/01/15 15:18:12;;;;;;;;;;;;;;;1.21;90.76;100517.69;4993884;28;19918;-88
2022/01/15 15:20:38;;;;;;;;;;;;;;;1.16;90.34;100509.81;4993830;28;19924;-89
2022/01/15 15:23:03;;;;;;;;;;;;;;;1.08;90.00;100506.28;4992683;28;19918;-88
2022/01/15 15:25:28;;;;;;;;;;;;;;;1.09;89.81;100502.81;4995240;28;19914;-88
2022/01/15 15:27:55;;;;;;;;;;;;;;;1.02;89.49;100507.13;4995155;28;19925;-88
2022/01/15 15:30:20;;;;;;;;;;;;;;;1.03;89.16;100508.84;4993075;28;20356;-88
2022/01/15 15:32:45;;;;;;;;;;;;;;;0.99;88.78;100506.19;4993225;28;19957;-89
2022/01/15 15:35:10;;;;;;;;;;;;;;;0.97;88.65;100507.94;4995214;28;19922;-91
2022/01/15 15:37:36;;;;;;;;;;;;;;;0.94;88.47;100508.75;4992829;28;19913;-89
2022/01/15 15:40:02;;;;;;;;;;;;;;;0.97;88.39;100513.16;4994320;28;19981;-89
2022/01/15 15:42:27;;;;;;;;;;;;;;;0.93;88.41;100507.03;4994213;28;19929;-88
2022/01/15 15:44:53;;;;;;;;;;;;;;;0.90;88.43;100505.25;4994885;28;19913;-88
2022/01/15 15:47:20;;;;;;;;;;;;;;;0.86;88.25;100511.34;4994493;28;19921;-88
2022/01/15 15:49:45;;;;;;;;;;;;;;;0.89;88.15;100516.59;4992797;28;19918;-89
2022/01/15 15:52:10;;;;;;;;;;;;;;;0.86;88.02;100513.94;4993544;28;19944;-88
2022/01/15 15:54:37;;;;;;;;;;;;;;;0.81;87.89;100518.22;4992073;28;19929;-88
2022/01/15 15:57:02;;;;;;;;;;;;;;;0.78;87.83;100520.81;4992919;28;19941;-87
2022/01/15 15:59:29;;;;;;;;;;;;;;;0.77;87.73;100520.84;4991726;28;19922;-93
2022/01/15 16:01:55;;;;;;;;;;;;;;;0.74;87.56;100524.28;4991855;28;19922;-89
2022/01/15 16:04:20;;;;;;;;;;;;;;;0.69;87.48;100523.38;4990688;28;19976;-88
2022/01/15 16:06:45;;;;;;;;;;;;;;;0.74;87.46;100526.88;4990915;28;19930;-90
2022/01/15 16:09:10;;;;;;;;;;;;;;;0.69;87.33;100531.19;4989806;28;19933;-90
2022/01/15 16:11:37;;;;;;;;;;;;;;;0.68;87.30;100539.88;4988781;28;19930;-91
2022/01/15 16:14:05;;;;;;;;;;;;;;;0.69;87.11;100539.00;4991324;28;19968;-87
2022/01/15 16:16:33;;;;;;;;;;;;;;;0.68;87.07;100540.72;4985335;28;20719;-86
2022/01/15 16:18:58;;;;;;;;;;;;;;;0.68;87.07;100540.72;4989673;28;20288;-89
2022/01/15 16:21:24;;;;;;;;;;;;;;;0.64;87.11;100544.19;4993238;28;19921;-87
2022/01/15 16:23:50;;;;;;;;;;;;;;;0.63;87.03;100545.03;4990740;28;20353;-88
2022/01/15 16:26:15;;;;;;;;;;;;;;;0.59;86.87;100539.75;4988657;28;19932;-87
2022/01/15 16:28:40;;;;;;;;;;;;;;;0.59;86.76;100537.16;4987082;28;19932;-90
2022/01/15 16:31:06;;;;;;;;;;;;;;;0.58;86.74;100540.66;4991418;28;19946;-88
2022/01/15 16:33:31;;;;;;;;;;;;;;;0.58;86.58;100536.28;4993717;28;19969;-91
2022/01/15 16:35:59;;;;;;;;;;;;;;;0.56;86.54;100539.72;4994049;28;19918;-90
2022/01/15 16:38:26;;;;;;;;;;;;;;;0.52;86.39;100537.09;4990367;28;19926;-89
2022/01/15 16:40:52;;;;;;;;;;;;;;;0.49;86.25;100539.66;4991077;28;20377;-88
2022/01/15 16:43:17;;;;;;;;;;;;;;;0.50;86.27;100535.34;4993378;28;19976;-88
2022/01/15 16:45:43;;;;;;;;;;;;;;;0.52;86.23;100537.09;4992261;28;20324;-87
2022/01/15 16:48:08;;;;;;;;;;;;;;;0.49;86.22;100525.75;4993800;28;19996;-86
2022/01/15 16:50:37;;;;;;;;;;;;;;;0.52;86.12;100529.28;4990911;28;20347;-86
2022/01/15 16:53:02;;;;;;;;;;;;;;;0.45;86.10;100530.09;4983367;28;19948;-89
2022/01/15 16:55:28;;;;;;;;;;;;;;;0.45;86.01;100534.44;4990835;28;19922;-87
2022/01/15 16:57:53;;;;;;;;;;;;;;;0.47;85.93;100525.75;4991630;28;19933;-87
2022/01/15 17:00:18;;;;;;;;;;;;;;;0.46;85.96;100520.50;4990005;28;20020;-89
2022/01/15 17:02:45;;;;;;;;;;;;;;;0.41;86.07;100520.47;4990750;28;20027;-86
2022/01/15 17:05:11;;;;;;;;;;;;;;;0.41;86.03;100512.66;4992834;28;19922;-86
2022/01/15 17:07:36;;;;;;;;;;;;;;;0.41;85.97;100512.66;4990593;28;19933;-85
2022/01/15 17:10:03;;;;;;;;;;;;;;;0.39;85.73;100514.38;4992170;28;20403;-86
2022/01/15 17:12:28;;;;;;;;;;;;;;;0.36;85.61;100522.16;4990461;28;19981;-89
2022/01/15 17:14:53;;;;;;;;;;;;;;;0.36;85.58;100519.56;4990124;28;20381;-87
2022/01/15 17:17:19;;;;;;;;;;;;;;;0.38;85.45;100516.97;4987472;28;19921;-87
2022/01/15 17:19:44;;;;;;;;;;;;;;;0.34;85.23;100521.28;4991946;28;20803;-88
2022/01/15 17:22:09;;;;;;;;;;;;;;;0.32;85.22;100517.75;4990154;28;19976;-86
2022/01/15 17:24:36;;;;;;;;;;;;;;;0.32;84.96;100522.97;4987810;28;19922;-87
2022/01/15 17:27:01;;;;;;;;;;;;;;;0.27;84.82;100514.22;4988014;28;20415;-89
2022/01/15 17:29:26;;;;;;;;;;;;;;;0.28;84.63;100521.22;4988679;28;19965;-87
2022/01/15 17:31:52;;;;;;;;;;;;;;;0.25;84.59;100526.38;4990189;28;20437;-89
2022/01/15 17:34:18;;;;;;;;;;;;;;;0.27;84.76;100520.34;4991098;28;20344;-87
2022/01/15 17:36:43;;;;;;;;;;;;;;;0.26;84.65;100525.53;4991543;28;19922;-88
2022/01/15 17:39:08;;;;;;;;;;;;;;;0.25;84.82;100522.03;4986240;28;19934;-87
2022/01/15 17:41:33;;;;;;;;;;;;;;;0.20;84.81;100522.88;4991632;28;19928;-89
2022/01/15 17:43:59;;;;;;;;;;;;;;;0.24;84.85;100524.63;4992209;28;19918;-88
2022/01/15 17:46:27;;;;;;;;;;;;;;;0.20;84.79;100512.44;4987809;28;19922;-86
2022/01/15 17:48:52;;;;;;;;;;;;;;;0.19;84.72;100511.53;4987355;28;19926;-89
2022/01/15 17:51:20;;;;;;;;;;;;;;;0.18;84.71;100504.59;4989238;28;19980;-87
2022/01/15 17:53:46;;;;;;;;;;;;;;;0.20;84.42;100502.00;4988022;28;20016;-86
2022/01/15 17:56:12;;;;;;;;;;;;;;;0.32;85.09;100509.94;4991094;28;20358;-87
2022/01/15 17:58:38;;;;;;;;;;;;;;;0.87;88.82;100502.63;4988885;28;19922;-86
2022/01/15 18:01:04;;;;;;;;;;;;;;;1.10;91.90;100509.75;4992512;28;20354;-88
2022/01/15 18:03:30;;;;;;;;;;;;;;;1.19;94.15;100503.75;4989906;28;19921;-86
2022/01/15 18:05:59;;;;;;;;;;;;;;;1.20;95.91;100506.38;4992445;28;20349;-88
2022/01/15 18:08:25;;;;;;;;;;;;;;;1.31;97.28;100508.16;4991443;28;20316;-89
2022/01/15 18:10:50;;;;;;;;;;;;;;;1.36;98.40;100491.69;4992557;28;20000;-87
2022/01/15 18:13:16;;;;;;;;;;;;;;;1.49;99.59;100499.59;4991110;28;19918;-88
2022/01/15 18:15:41;;;;;;;;;;;;;;;1.65;100.00;100497.94;4992751;28;19918;-89
2022/01/15 18:18:07;;;;;;;;;;;;;;;1.84;100.00;100499.75;4992661;28;19918;-89
2022/01/15 18:20:32;;;;;;;;;;;;;;;1.99;100.00;100501.53;4992671;28;20288;-88
2022/01/15 18:22:57;;;;;;;;;;;;;;;2.09;100.00;100494.59;4988217;28;19918;-89
2022/01/15 18:25:23;;;;;;;;;;;;;;;2.26;100.00;100492.03;4990576;28;19921;-88
2022/01/15 18:27:48;;;;;;;;;;;;;;;2.39;100.00;100487.72;4992413;28;20321;-87
2022/01/15 18:30:14;;;;;;;;;;;;;;;2.52;100.00;100492.06;4989660;28;20013;-87
2022/01/15 18:32:39;;;;;;;;;;;;;;;2.60;100.00;100486.84;4991608;28;19953;-86
2022/01/15 18:35:06;;;;;;;;;;;;;;;2.67;100.00;100486.88;4989269;28;19949;-87
2022/01/15 18:37:32;;;;;;;;;;;;;;;2.76;100.00;100492.97;4988338;28;19988;-86
2022/01/15 18:39:57;;;;;;;;;;;;;;;2.83;100.00;100492.13;4989127;28;20317;-88
2022/01/15 18:42:22;;;;;;;;;;;;;;;2.89;100.00;100497.34;4991591;28;20036;-89
2022/01/15 18:44:48;;;;;;;;;;;;;;;2.95;100.00;100492.09;4987838;28;19918;-87
2022/01/15 18:47:13;;;;;;;;;;;;;;;3.00;100.00;100492.09;4988681;28;19925;-88
2022/01/15 18:49:38;;;;;;;;;;;;;;;3.05;100.00;100491.22;4991448;28;20290;-87
2022/01/15 18:52:05;;;;;;;;;;;;;;;3.10;100.00;100493.84;4994922;28;20373;-87
2022/01/15 18:54:30;;;;;;;;;;;;;;;3.16;100.00;100487.72;4994337;28;20385;-89
2022/01/15 18:56:55;;;;;;;;;;;;;;;3.21;100.00;100493.84;4995823;28;20017;-89
2022/01/15 18:59:22;;;;;;;;;;;;;;;3.27;100.00;100499.03;4990237;28;19964;-88
2022/01/15 19:01:52;;;;;;;;;;;;;;;3.32;100.00;100499.94;4993601;28;19922;-88
2022/01/15 19:04:17;;;;;;;;;;;;;;;3.36;100.00;100501.66;4995513;28;19929;-89
2022/01/15 19:06:42;;;;;;;;;;;;;;;3.41;100.00;100505.13;4990142;28;19922;-88
2022/01/15 19:09:08;;;;;;;;;;;;;;;3.46;100.00;100505.13;4991492;28;19922;-86
2022/01/15 19:11:33;;;;;;;;;;;;;;;3.50;100.00;100506.88;4994377;28;19926;-86
2022/01/15 19:13:59;;;;;;;;;;;;;;;3.55;100.00;100512.09;4993755;28;20008;-87
2022/01/15 19:16:24;;;;;;;;;;;;;;;3.57;100.00;100519.06;4992394;28;20003;-86
2022/01/15 19:18:50;;;;;;;;;;;;;;;3.62;100.00;100533.06;4989392;28;19925;-88
2022/01/15 19:21:15;;;;;;;;;;;;;;;3.65;100.00;100540.03;4990187;28;20396;-86
2022/01/15 19:23:40;;;;;;;;;;;;;;;3.70;100.00;100561.88;4992432;28;19922;-87